Time;durP1;ratioP1;P1;durP2;ratioP2;P2;SDS_P1;SDS_P2;PMS_P1;PMS_P2;Temp;Humidity;BMP_temperature;BMP_pressure;BME280_temperature;BME280_humidity;BME280_pressure;Samples;Min_cycle;Max_cycle;Signal;HPM_P1;HPM_P2
2023/05/06 00:00:48;;;;;;;6.10;5.05;;;14.50;81.50;;;;;;5052936;28;20103;-67
2023/05/06 00:03:14;;;;;;;5.65;4.70;;;14.50;81.40;;;;;;5053007;28;20029;-67
2023/05/06 00:05:40;;;;;;;5.38;4.47;;;14.60;81.50;;;;;;5052930;28;20063;-67
2023/05/06 00:08:06;;;;;;;5.38;4.43;;;14.60;81.50;;;;;;5052632;28;20024;-67
2023/05/06 00:10:31;;;;;;;6.38;4.85;;;14.60;81.50;;;;;;5052782;28;20140;-67
2023/05/06 00:12:57;;;;;;;6.53;5.35;;;14.60;81.50;;;;;;5052753;28;20479;-67
2023/05/06 00:15:22;;;;;;;7.00;5.03;;;14.60;81.50;;;;;;5053124;28;20035;-66
2023/05/06 00:17:48;;;;;;;8.02;6.05;;;14.60;81.50;;;;;;5052713;28;20036;-67
2023/05/06 00:20:13;;;;;;;9.75;6.72;;;14.50;81.50;;;;;;5052500;28;20048;-66
2023/05/06 00:22:39;;;;;;;6.82;5.80;;;14.60;81.80;;;;;;5052715;28;20392;-67
2023/05/06 00:25:05;;;;;;;7.18;5.72;;;14.50;81.70;;;;;;5052187;28;20043;-67
2023/05/06 00:27:31;;;;;;;9.38;7.03;;;14.60;81.90;;;;;;5052973;28;20048;-67
2023/05/06 00:29:57;;;;;;;8.05;6.60;;;14.60;82.00;;;;;;5052757;28;20479;-67
2023/05/06 00:32:23;;;;;;;8.88;6.90;;;14.60;82.00;;;;;;5052328;28;20036;-68
2023/05/06 00:34:49;;;;;;;7.28;5.88;;;14.60;82.20;;;;;;5051221;28;20036;-68
2023/05/06 00:37:14;;;;;;;8.90;6.65;;;14.70;82.20;;;;;;5052370;28;20044;-67
2023/05/06 00:39:40;;;;;;;7.57;6.30;;;14.70;82.10;;;;;;5052132;28;20025;-68
2023/05/06 00:42:05;;;;;;;7.07;5.65;;;14.70;82.00;;;;;;5052534;28;20021;-68
2023/05/06 00:44:31;;;;;;;8.23;6.70;;;14.70;82.00;;;;;;5052211;28;20025;-68
2023/05/06 00:46:58;;;;;;;7.18;6.20;;;14.70;82.10;;;;;;5052066;28;20439;-67
2023/05/06 00:49:24;;;;;;;7.78;6.57;;;14.70;82.30;;;;;;5052334;28;20033;-67
2023/05/06 00:51:52;;;;;;;8.65;6.43;;;14.70;82.20;;;;;;5052077;28;20032;-67
2023/05/06 00:54:18;;;;;;;8.02;6.35;;;14.70;82.20;;;;;;5052347;28;20432;-67
2023/05/06 00:56:44;;;;;;;9.68;8.35;;;14.60;82.40;;;;;;5050895;28;20021;-67
2023/05/06 00:59:09;;;;;;;9.25;7.07;;;14.50;82.80;;;;;;5052558;28;20036;-68
2023/05/06 01:01:36;;;;;;;10.82;7.75;;;14.50;83.20;;;;;;5052586;28;20417;-67
2023/05/06 01:04:01;;;;;;;10.60;8.52;;;14.50;83.40;;;;;;5052550;28;20100;-66
2023/05/06 01:07:05;;;;;;;11.73;8.88;;;14.40;83.50;;;;;;5051921;28;20377;-66
2023/05/06 01:09:46;;;;;;;8.45;7.43;;;14.40;83.70;;;;;;5051628;28;20029;-67
2023/05/06 01:12:16;;;;;;;8.30;6.63;;;14.40;83.90;;;;;;5051784;28;20554;-67
2023/05/06 01:14:54;;;;;;;9.85;8.13;;;14.40;83.90;;;;;;5051965;28;20107;-67
2023/05/06 01:17:25;;;;;;;8.93;7.65;;;14.40;84.00;;;;;;5051780;28;20013;-68
2023/05/06 01:19:54;;;;;;;10.90;8.38;;;14.40;84.20;;;;;;5051493;28;20025;-67
2023/05/06 01:22:22;;;;;;;9.90;8.63;;;14.50;84.20;;;;;;5051513;28;20028;-67
2023/05/06 01:24:47;;;;;;;10.43;8.80;;;14.40;84.00;;;;;;5051764;28;20103;-66
2023/05/06 01:27:13;;;;;;;10.93;8.75;;;14.40;84.10;;;;;;5051315;28;20104;-67
2023/05/06 01:29:41;;;;;;;9.07;7.82;;;14.50;84.20;;;;;;5051397;28;20033;-68
2023/05/06 01:32:27;;;;;;;9.13;7.82;;;14.40;84.20;;;;;;5051328;28;20402;-68
2023/05/06 01:35:01;;;;;;;9.55;8.35;;;14.40;84.50;;;;;;5051461;28;20256;-66
2023/05/06 01:37:46;;;;;;;9.80;7.85;;;14.40;84.70;;;;;;5051133;28;20017;-68
2023/05/06 01:40:15;;;;;;;10.13;8.70;;;14.40;84.80;;;;;;5051328;28;20033;-67
2023/05/06 01:42:43;;;;;;;8.85;7.55;;;14.40;84.90;;;;;;5051103;28;20021;-66
2023/05/06 01:45:10;;;;;;;9.40;7.95;;;14.40;85.00;;;;;;5050776;28;20028;-66
2023/05/06 01:47:38;;;;;;;9.88;8.15;;;14.40;84.80;;;;;;5051158;28;20391;-66
2023/05/06 01:50:04;;;;;;;9.98;8.25;;;14.40;84.80;;;;;;5050792;28;20021;-67
2023/05/06 01:52:29;;;;;;;9.98;8.70;;;14.40;84.80;;;;;;5050842;28;20024;-67
2023/05/06 01:54:55;;;;;;;11.13;8.63;;;14.40;84.70;;;;;;5051009;28;20041;-67
2023/05/06 01:57:20;;;;;;;12.63;10.02;;;14.40;84.80;;;;;;5050760;28;20021;-67
2023/05/06 01:59:46;;;;;;;10.18;8.65;;;14.50;84.80;;;;;;5050810;28;20037;-67
2023/05/06 02:02:11;;;;;;;10.38;8.25;;;14.40;84.70;;;;;;5050409;28;20514;-67
2023/05/06 02:04:37;;;;;;;13.60;11.73;;;14.50;84.70;;;;;;5049503;28;20096;-66
2023/05/06 02:07:02;;;;;;;9.80;8.68;;;14.30;85.10;;;;;;5050146;28;20036;-70
2023/05/06 02:09:28;;;;;;;16.85;12.98;;;14.30;85.50;;;;;;5050520;28;20033;-68
2023/05/06 02:11:53;;;;;;;14.45;12.15;;;14.20;85.70;;;;;;5050511;28;20135;-66
2023/05/06 02:14:19;;;;;;;11.90;9.98;;;14.20;86.00;;;;;;5050405;28;20040;-68
2023/05/06 02:16:45;;;;;;;11.15;9.38;;;14.10;86.10;;;;;;5050516;28;20495;-67
2023/05/06 02:19:11;;;;;;;10.45;8.70;;;14.10;86.20;;;;;;5050392;28;20027;-68
2023/05/06 02:21:36;;;;;;;9.50;8.27;;;14.10;86.20;;;;;;5050451;28;20376;-67
2023/05/06 02:24:02;;;;;;;11.50;9.20;;;14.10;86.00;;;;;;5050422;28;20032;-67
2023/05/06 02:26:27;;;;;;;11.23;9.07;;;14.10;85.90;;;;;;5050104;28;20464;-68
2023/05/06 02:28:53;;;;;;;11.57;9.07;;;14.10;85.90;;;;;;5050229;28;20017;-67
2023/05/06 02:31:18;;;;;;;10.32;8.82;;;14.00;85.90;;;;;;5050291;28;20036;-67
2023/05/06 02:33:44;;;;;;;12.32;10.40;;;14.00;85.90;;;;;;5050199;28;20498;-67
2023/05/06 02:36:10;;;;;;;17.75;12.55;;;14.00;86.10;;;;;;5050057;28;20111;-68
2023/05/06 02:38:36;;;;;;;14.63;11.32;;;13.90;86.40;;;;;;5049040;28;20471;-68
2023/05/06 02:41:01;;;;;;;14.25;11.18;;;13.90;86.50;;;;;;5050394;28;20031;-67
2023/05/06 02:43:28;;;;;;;12.68;9.98;;;13.90;86.70;;;;;;5050147;28;20052;-67
2023/05/06 02:45:53;;;;;;;11.57;8.73;;;13.90;86.70;;;;;;5049975;28;20041;-66
2023/05/06 02:48:19;;;;;;;14.52;10.25;;;13.90;86.70;;;;;;5049952;28;20059;-67
2023/05/06 02:50:44;;;;;;;10.88;8.80;;;13.90;86.60;;;;;;5050207;28;20093;-68
2023/05/06 02:53:12;;;;;;;11.27;9.65;;;13.90;86.60;;;;;;5050105;28;20021;-67
2023/05/06 02:55:37;;;;;;;11.98;9.32;;;13.90;86.50;;;;;;5050032;28;20468;-67
2023/05/06 02:58:03;;;;;;;12.70;10.25;;;13.90;86.50;;;;;;5055668;28;20019;-68
2023/05/06 03:00:29;;;;;;;11.27;9.52;;;13.90;86.40;;;;;;5056700;28;20084;-66
2023/05/06 03:02:54;;;;;;;11.20;9.40;;;13.90;86.50;;;;;;5056577;28;20075;-67
2023/05/06 03:05:20;;;;;;;11.23;8.90;;;13.90;86.40;;;;;;5056693;28;20050;-67
2023/05/06 03:07:45;;;;;;;10.57;8.70;;;13.90;86.30;;;;;;5056385;28;20025;-67
2023/05/06 03:10:11;;;;;;;11.00;8.48;;;13.80;86.30;;;;;;5055284;28;20025;-68
2023/05/06 03:12:37;;;;;;;10.73;9.07;;;13.80;86.30;;;;;;5056380;28;20471;-68
2023/05/06 03:15:02;;;;;;;9.00;7.82;;;13.70;86.30;;;;;;5056530;28;20023;-67
2023/05/06 03:17:28;;;;;;;9.48;8.07;;;13.70;86.30;;;;;;5056552;28;20044;-67
2023/05/06 03:19:54;;;;;;;10.45;8.57;;;13.70;86.60;;;;;;5056423;28;20083;-68
2023/05/06 03:22:19;;;;;;;9.20;7.80;;;13.70;86.10;;;;;;5056481;28;20033;-67
2023/05/06 03:24:45;;;;;;;10.32;8.65;;;13.70;86.10;;;;;;5056275;28;20025;-67
2023/05/06 03:27:10;;;;;;;11.25;9.25;;;13.70;86.20;;;;;;5056471;28;20057;-68
2023/05/06 03:29:36;;;;;;;12.55;9.75;;;13.60;86.10;;;;;;5055110;28;20029;-67
2023/05/06 03:32:02;;;;;;;10.45;8.60;;;13.50;86.30;;;;;;5056729;28;20032;-67
2023/05/06 03:34:29;;;;;;;10.35;8.63;;;13.60;86.40;;;;;;5056949;28;20021;-68
2023/05/06 03:36:55;;;;;;;10.98;8.85;;;13.60;86.30;;;;;;5056498;28;20013;-68
2023/05/06 03:39:20;;;;;;;11.68;9.63;;;13.60;86.20;;;;;;5054983;28;20555;-67
2023/05/06 03:41:46;;;;;;;11.43;9.52;;;13.50;86.20;;;;;;5056577;28;20056;-68
2023/05/06 03:44:11;;;;;;;12.07;9.52;;;13.40;86.50;;;;;;5056599;28;20028;-67
2023/05/06 03:46:37;;;;;;;11.88;9.63;;;13.40;86.70;;;;;;5056586;28;20029;-69
2023/05/06 03:49:03;;;;;;;10.65;9.07;;;13.40;86.80;;;;;;5054579;28;20035;-69
2023/05/06 03:51:29;;;;;;;9.65;8.20;;;13.40;86.90;;;;;;5056275;28;20025;-68
2023/05/06 03:53:55;;;;;;;10.93;8.75;;;13.40;86.90;;;;;;5056037;28;20383;-68
2023/05/06 03:56:21;;;;;;;9.55;7.80;;;13.40;86.90;;;;;;5055993;28;20025;-67
2023/05/06 03:58:47;;;;;;;11.75;9.52;;;13.40;86.70;;;;;;5056139;28;20025;-68
2023/05/06 04:01:13;;;;;;;11.75;9.07;;;13.40;86.70;;;;;;5056002;28;20029;-67
2023/05/06 04:03:38;;;;;;;10.18;8.55;;;13.40;86.70;;;;;;5056212;28;20029;-67
2023/05/06 04:06:05;;;;;;;11.93;10.13;;;13.40;86.70;;;;;;5056282;28;20123;-69
2023/05/06 04:08:30;;;;;;;10.60;9.00;;;13.40;86.60;;;;;;5052962;28;20029;-67
2023/05/06 04:10:56;;;;;;;10.75;8.70;;;13.40;86.60;;;;;;5052891;28;20032;-68
2023/05/06 04:13:22;;;;;;;11.40;9.15;;;13.40;86.70;;;;;;5052851;28;20021;-67
2023/05/06 04:15:48;;;;;;;10.65;8.05;;;13.40;86.80;;;;;;5052782;28;20480;-67
2023/05/06 04:18:17;;;;;;;11.27;8.93;;;13.40;86.80;;;;;;5052798;28;20021;-68
2023/05/06 04:20:46;;;;;;;10.10;8.40;;;13.40;86.70;;;;;;5052442;28;20009;-67
2023/05/06 04:23:11;;;;;;;10.27;8.48;;;13.50;86.70;;;;;;5052568;28;20026;-67
2023/05/06 04:25:37;;;;;;;9.45;7.85;;;13.50;86.50;;;;;;5052475;28;20392;-66
2023/05/06 04:28:03;;;;;;;11.43;9.50;;;13.40;86.50;;;;;;5052861;28;20021;-67
2023/05/06 04:30:28;;;;;;;9.88;8.15;;;13.50;86.40;;;;;;5052452;28;20032;-67
2023/05/06 04:32:54;;;;;;;11.57;9.90;;;13.50;86.40;;;;;;5052270;28;20013;-68
2023/05/06 04:35:20;;;;;;;10.02;8.30;;;13.50;86.90;;;;;;5052779;28;20036;-66
2023/05/06 04:37:47;;;;;;;10.13;7.97;;;13.50;86.30;;;;;;5052172;28;20066;-67
2023/05/06 04:40:13;;;;;;;9.55;7.95;;;13.60;86.30;;;;;;5052613;28;20025;-67
2023/05/06 04:42:38;;;;;;;11.20;9.40;;;13.60;86.20;;;;;;5052288;28;20035;-67
2023/05/06 04:45:04;;;;;;;11.07;9.43;;;13.60;86.20;;;;;;5052241;28;20021;-67
2023/05/06 04:47:30;;;;;;;10.85;9.75;;;13.60;86.30;;;;;;5051982;28;20033;-67
2023/05/06 04:49:56;;;;;;;9.07;7.82;;;13.60;86.60;;;;;;5051978;28;20025;-67
2023/05/06 04:52:21;;;;;;;8.27;7.10;;;13.60;86.70;;;;;;5051932;28;20029;-67
2023/05/06 04:54:47;;;;;;;9.05;7.03;;;13.70;86.60;;;;;;5050788;28;20029;-68
2023/05/06 04:57:12;;;;;;;10.20;8.27;;;13.70;86.40;;;;;;5075442;28;20028;-68
2023/05/06 04:59:38;;;;;;;8.05;6.57;;;13.70;86.40;;;;;;5051833;28;20029;-67
2023/05/06 05:02:03;;;;;;;9.00;6.82;;;13.70;86.30;;;;;;5052050;28;20101;-68
2023/05/06 05:04:29;;;;;;;8.77;6.43;;;13.80;86.30;;;;;;5051753;28;20124;-67
2023/05/06 05:06:54;;;;;;;9.98;6.95;;;13.70;86.10;;;;;;5052128;28;20028;-66
2023/05/06 05:09:20;;;;;;;11.38;7.20;;;13.80;86.20;;;;;;5051816;28;20025;-67
2023/05/06 05:11:45;;;;;;;11.52;7.85;;;13.80;86.20;;;;;;5051916;28;20052;-67
2023/05/06 05:14:11;;;;;;;10.13;7.32;;;13.70;86.20;;;;;;5051730;28;20029;-68
2023/05/06 05:16:36;;;;;;;30.48;9.25;;;13.70;86.40;;;;;;5052144;28;20021;-67
2023/05/06 05:19:02;;;;;;;17.65;8.20;;;13.70;86.60;;;;;;5051709;28;20036;-68
2023/05/06 05:21:27;;;;;;;38.70;9.38;;;13.70;86.80;;;;;;5051346;28;20025;-68
2023/05/06 05:23:53;;;;;;;24.42;8.90;;;13.70;86.70;;;;;;5051706;28;20244;-67
2023/05/06 05:26:19;;;;;;;11.50;7.88;;;13.80;86.80;;;;;;5051524;28;20036;-67
2023/05/06 05:28:44;;;;;;;26.95;7.70;;;13.80;87.40;;;;;;5051560;28;20471;-68
2023/05/06 05:31:10;;;;;;;9.20;6.10;;;14.00;86.60;;;;;;5051469;28;20479;-67
2023/05/06 05:33:35;;;;;;;15.88;9.80;;;14.10;86.30;;;;;;5050199;28;20259;-67
2023/05/06 05:36:01;;;;;;;14.27;10.05;;;14.10;86.40;;;;;;5051245;28;20087;-67
2023/05/06 05:38:26;;;;;;;11.82;9.57;;;14.30;86.50;;;;;;5051351;28;20546;-68
2023/05/06 05:40:52;;;;;;;13.05;9.70;;;14.50;86.30;;;;;;5051234;28;20025;-69
2023/05/06 05:43:20;;;;;;;11.05;9.35;;;14.80;86.00;;;;;;5051200;28;20025;-67
2023/05/06 05:45:45;;;;;;;12.02;9.70;;;15.10;85.30;;;;;;5051076;28;20048;-67
2023/05/06 05:48:11;;;;;;;10.98;9.48;;;15.40;84.60;;;;;;5051153;28;20063;-67
2023/05/06 05:50:36;;;;;;;8.18;7.28;;;16.00;83.50;;;;;;5050970;28;20021;-67
2023/05/06 05:53:02;;;;;;;9.25;7.93;;;16.60;81.60;;;;;;5051509;28;20320;-67
2023/05/06 05:55:28;;;;;;;8.68;7.63;;;17.30;79.40;;;;;;5051481;28;20036;-67
2023/05/06 05:57:53;;;;;;;9.60;7.60;;;18.10;77.30;;;;;;5050970;28;20317;-67
2023/05/06 06:00:20;;;;;;;8.95;8.02;;;18.80;74.70;;;;;;5050713;28;20232;-68
2023/05/06 06:02:45;;;;;;;9.63;8.60;;;19.00;72.60;;;;;;5050882;28;20116;-68
2023/05/06 06:05:11;;;;;;;10.20;8.57;;;18.80;71.70;;;;;;5051277;28;20532;-67
2023/05/06 06:07:36;;;;;;;9.45;8.45;;;18.60;72.10;;;;;;5050651;28;20053;-68
2023/05/06 06:10:03;;;;;;;9.93;8.65;;;18.40;72.40;;;;;;5050674;28;20076;-68
2023/05/06 06:12:28;;;;;;;10.23;8.60;;;18.10;73.00;;;;;;5050542;28;20029;-66
2023/05/06 06:14:54;;;;;;;11.05;9.85;;;17.90;73.90;;;;;;5050804;28;20017;-67
2023/05/06 06:17:20;;;;;;;13.02;10.65;;;17.70;74.10;;;;;;5050400;28;20013;-69
2023/05/06 06:19:50;;;;;;;12.50;9.75;;;17.60;74.50;;;;;;5050520;28;20029;-66
2023/05/06 06:22:15;;;;;;;10.82;9.52;;;17.70;75.20;;;;;;5050793;28;20021;-67
2023/05/06 06:24:41;;;;;;;14.30;11.73;;;18.30;73.80;;;;;;5050469;28;20035;-67
2023/05/06 06:27:06;;;;;;;12.20;10.20;;;18.90;72.30;;;;;;5050422;28;20039;-68
2023/05/06 06:29:32;;;;;;;10.20;8.63;;;19.30;70.70;;;;;;5050282;28;20426;-67
2023/05/06 06:31:58;;;;;;;10.75;9.30;;;19.00;71.10;;;;;;5048032;28;20021;-67
2023/05/06 06:34:24;;;;;;;10.45;9.00;;;18.90;71.50;;;;;;5050189;28;20101;-67
2023/05/06 06:36:50;;;;;;;9.25;8.25;;;18.80;71.80;;;;;;5050223;28;20100;-68
2023/05/06 06:39:15;;;;;;;10.43;8.68;;;18.60;72.50;;;;;;5050181;28;20028;-67
2023/05/06 06:41:41;;;;;;;11.07;9.13;;;18.50;72.80;;;;;;5050384;28;20024;-68
2023/05/06 06:44:06;;;;;;;10.68;8.30;;;18.10;73.50;;;;;;5050140;28;20399;-68
2023/05/06 06:46:32;;;;;;;8.90;8.00;;;17.80;74.60;;;;;;5050184;28;20025;-67
2023/05/06 06:48:59;;;;;;;11.50;8.73;;;17.50;75.60;;;;;;5049794;28;20028;-68
2023/05/06 06:51:24;;;;;;;9.30;7.93;;;17.30;77.10;;;;;;5050114;28;20052;-68
2023/05/06 06:53:50;;;;;;;9.55;7.47;;;17.10;77.30;;;;;;5050078;28;20468;-67
2023/05/06 06:56:16;;;;;;;9.40;7.82;;;16.90;77.90;;;;;;5050211;28;20226;-68
2023/05/06 06:58:42;;;;;;;8.90;7.88;;;16.80;78.50;;;;;;5050005;28;20099;-68
2023/05/06 07:01:09;;;;;;;9.00;7.43;;;16.70;78.90;;;;;;5050065;28;20108;-67
2023/05/06 07:03:34;;;;;;;11.80;10.57;;;16.60;79.20;;;;;;5049782;28;20060;-67
2023/05/06 07:06:00;;;;;;;10.77;9.68;;;16.40;79.90;;;;;;5050108;28;20060;-67
2023/05/06 07:08:25;;;;;;;11.35;10.15;;;16.30;80.30;;;;;;5050034;28;20040;-68
2023/05/06 07:10:51;;;;;;;10.80;9.68;;;16.20;80.60;;;;;;5049840;28;20044;-68
2023/05/06 07:13:16;;;;;;;10.70;9.30;;;16.10;81.00;;;;;;5048719;28;20511;-67
2023/05/06 07:15:42;;;;;;;9.90;8.40;;;16.10;81.30;;;;;;5049755;28;20021;-67
2023/05/06 07:18:08;;;;;;;10.70;9.20;;;16.20;81.40;;;;;;5049818;28;20032;-68
2023/05/06 07:20:34;;;;;;;11.07;9.85;;;16.20;81.30;;;;;;5049727;28;20055;-67
2023/05/06 07:22:59;;;;;;;9.50;8.50;;;16.10;81.40;;;;;;5049835;28;20426;-68
2023/05/06 07:25:26;;;;;;;8.80;7.90;;;16.20;81.50;;;;;;5049602;28;20108;-67
2023/05/06 07:27:52;;;;;;;10.90;9.70;;;16.30;81.40;;;;;;5049896;28;20047;-68
2023/05/06 07:30:18;;;;;;;11.02;9.30;;;16.20;81.30;;;;;;5049660;28;20025;-68
2023/05/06 07:32:44;;;;;;;10.73;9.63;;;16.20;81.50;;;;;;5049697;28;20095;-67
2023/05/06 07:35:10;;;;;;;10.77;9.63;;;16.20;81.50;;;;;;5049746;28;20025;-68
2023/05/06 07:37:35;;;;;;;10.80;9.70;;;16.20;81.70;;;;;;5049555;28;20028;-68
2023/05/06 07:40:01;;;;;;;11.50;10.05;;;16.20;81.80;;;;;;5049803;28;20108;-67
2023/05/06 07:42:27;;;;;;;11.77;10.52;;;16.10;82.00;;;;;;5049885;28;20046;-67
2023/05/06 07:44:52;;;;;;;11.18;10.07;;;16.20;82.30;;;;;;5052140;28;20372;-68
2023/05/06 07:47:27;;;;;;;12.27;8.90;;;16.10;82.40;;;;;;5053217;28;20036;-67
2023/05/06 07:49:53;;;;;;;9.43;8.43;;;16.40;82.50;;;;;;5053281;28;20547;-68
2023/05/06 07:52:18;;;;;;;13.52;12.13;;;16.60;81.80;;;;;;5053267;28;20051;-68
2023/05/06 07:54:44;;;;;;;12.70;11.40;;;16.80;81.30;;;;;;5053295;28;20031;-67
2023/05/06 07:57:09;;;;;;;12.43;10.98;;;16.80;81.00;;;;;;5053546;28;20095;-67
2023/05/06 07:59:35;;;;;;;12.05;10.20;;;16.90;81.00;;;;;;5053080;28;20040;-67
2023/05/06 08:02:01;;;;;;;8.40;7.07;;;17.00;80.90;;;;;;5052988;28;20024;-68
2023/05/06 08:04:26;;;;;;;9.93;8.75;;;17.30;80.40;;;;;;5053556;28;20415;-68
2023/05/06 08:06:52;;;;;;;10.55;9.02;;;17.40;80.10;;;;;;5053574;28;20308;-68
2023/05/06 08:09:18;;;;;;;13.05;10.85;;;17.60;79.80;;;;;;5053514;28;20032;-67
2023/05/06 08:11:44;;;;;;;10.82;9.73;;;17.70;79.10;;;;;;5053125;28;20029;-67
2023/05/06 08:14:09;;;;;;;10.20;8.98;;;17.70;78.90;;;;;;5053028;28;20379;-68
2023/05/06 08:16:35;;;;;;;9.27;7.53;;;17.70;78.70;;;;;;5052900;28;20430;-67
2023/05/06 08:19:00;;;;;;;10.52;8.90;;;17.70;79.00;;;;;;5052822;28;20029;-68
2023/05/06 08:21:26;;;;;;;10.65;9.55;;;17.80;78.70;;;;;;5053119;28;20033;-68
2023/05/06 08:23:52;;;;;;;10.57;9.05;;;17.80;78.40;;;;;;5052737;28;20143;-68
2023/05/06 08:26:17;;;;;;;8.90;8.00;;;17.80;78.50;;;;;;5052647;28;20059;-67
2023/05/06 08:28:43;;;;;;;11.57;10.15;;;17.90;78.50;;;;;;5052482;28;20344;-67
2023/05/06 08:31:09;;;;;;;13.55;10.27;;;17.90;78.00;;;;;;5052734;28;20021;-67
2023/05/06 08:33:34;;;;;;;11.40;10.20;;;17.90;78.10;;;;;;5052338;28;20056;-67
2023/05/06 08:36:00;;;;;;;10.02;8.45;;;17.90;77.90;;;;;;5052579;28;20081;-68
2023/05/06 08:38:25;;;;;;;11.38;8.95;;;18.00;77.90;;;;;;5052292;28;20562;-67
2023/05/06 08:40:52;;;;;;;10.80;9.05;;;18.10;77.70;;;;;;5052497;28;20068;-66
2023/05/06 08:43:20;;;;;;;15.75;12.90;;;18.20;77.30;;;;;;5052257;28;20025;-67
2023/05/06 08:45:46;;;;;;;14.70;11.88;;;18.20;76.40;;;;;;5052342;28;20491;-67
2023/05/06 08:48:11;;;;;;;15.10;11.63;;;18.20;76.60;;;;;;5050964;28;20014;-67
2023/05/06 08:50:44;;;;;;;14.95;11.27;;;18.20;76.60;;;;;;5052132;28;20479;-66
2023/05/06 08:53:12;;;;;;;13.48;11.25;;;18.40;76.50;;;;;;5052583;28;20083;-67
2023/05/06 08:55:42;;;;;;;12.32;10.85;;;18.60;76.00;;;;;;5051272;28;20464;-67
2023/05/06 08:58:09;;;;;;;16.00;12.90;;;18.60;75.30;;;;;;5051916;28;20155;-67
2023/05/06 09:00:35;;;;;;;12.27;10.65;;;18.70;74.90;;;;;;5051880;28;20025;-67
2023/05/06 09:03:01;;;;;;;13.48;9.88;;;18.70;74.80;;;;;;5051990;28;20020;-67
2023/05/06 09:05:27;;;;;;;13.02;10.40;;;18.90;74.90;;;;;;5051818;28;20510;-68
2023/05/06 09:07:53;;;;;;;11.98;9.20;;;19.00;74.70;;;;;;5051936;28;20075;-67
2023/05/06 09:10:18;;;;;;;9.82;8.23;;;19.20;74.50;;;;;;5051748;28;20029;-66
2023/05/06 09:12:44;;;;;;;10.35;8.05;;;19.40;74.10;;;;;;5052121;28;20087;-68
2023/05/06 09:15:10;;;;;;;11.10;8.82;;;19.40;73.40;;;;;;5051794;28;20079;-68
2023/05/06 09:17:36;;;;;;;12.20;9.15;;;19.30;73.00;;;;;;5050286;28;20495;-68
2023/05/06 09:20:02;;;;;;;10.18;7.68;;;19.40;72.90;;;;;;5051721;28;20025;-67
2023/05/06 09:22:29;;;;;;;11.40;9.18;;;19.60;73.00;;;;;;5051869;28;20101;-67
2023/05/06 09:24:58;;;;;;;12.30;10.60;;;19.60;72.10;;;;;;5051526;28;20037;-67
2023/05/06 09:27:30;;;;;;;11.80;9.50;;;19.50;71.80;;;;;;5051303;28;20044;-68
2023/05/06 09:30:06;;;;;;;12.63;10.45;;;19.60;72.40;;;;;;5051656;28;20021;-68
2023/05/06 09:32:33;;;;;;;11.52;9.70;;;19.80;72.20;;;;;;5051402;28;20040;-68
2023/05/06 09:34:59;;;;;;;9.40;8.25;;;19.80;71.40;;;;;;5051336;28;20028;-68
2023/05/06 09:37:26;;;;;;;9.73;7.28;;;19.90;70.90;;;;;;5051070;28;20043;-66
2023/05/06 09:39:56;;;;;;;8.73;7.22;;;20.00;70.70;;;;;;5051150;28;20032;-67
2023/05/06 09:42:27;;;;;;;12.10;9.05;;;20.10;70.40;;;;;;5047712;28;20496;-68
2023/05/06 09:44:55;;;;;;;11.93;8.30;;;20.20;69.30;;;;;;5046641;28;20071;-68
2023/05/06 09:47:21;;;;;;;9.38;6.78;;;20.20;69.50;;;;;;5050969;28;20068;-66
2023/05/06 09:49:47;;;;;;;8.80;6.18;;;20.40;69.30;;;;;;5050967;28;20501;-66
2023/05/06 09:52:13;;;;;;;10.57;8.27;;;20.60;68.70;;;;;;5050850;28;20096;-69
2023/05/06 09:54:39;;;;;;;8.70;6.95;;;20.60;67.20;;;;;;5051333;28;20056;-66
2023/05/06 09:57:06;;;;;;;7.18;5.10;;;20.50;66.80;;;;;;5050846;28;20021;-66
2023/05/06 09:59:32;;;;;;;8.98;6.90;;;20.60;66.90;;;;;;5050976;28;20392;-67
2023/05/06 10:01:59;;;;;;;7.50;6.20;;;20.60;65.90;;;;;;5051069;28;20269;-67
2023/05/06 10:04:26;;;;;;;8.13;6.22;;;20.50;66.00;;;;;;5050792;28;20025;-67
2023/05/06 10:06:55;;;;;;;8.80;6.60;;;20.60;66.00;;;;;;5050443;28;20035;-67
2023/05/06 10:09:23;;;;;;;8.57;6.72;;;20.70;66.20;;;;;;5050579;28;20456;-67
2023/05/06 10:11:51;;;;;;;10.13;7.78;;;21.00;65.80;;;;;;5050596;28;20099;-68
2023/05/06 10:14:17;;;;;;;7.63;6.22;;;21.00;65.20;;;;;;5050708;28;20383;-66
2023/05/06 10:16:45;;;;;;;10.88;8.32;;;21.10;65.70;;;;;;5050723;28;20107;-67
2023/05/06 10:19:12;;;;;;;12.18;8.63;;;21.30;65.10;;;;;;5050475;28;20032;-68
2023/05/06 10:21:42;;;;;;;10.77;7.75;;;21.30;64.40;;;;;;5050637;28;20044;-67
2023/05/06 10:24:12;;;;;;;10.02;7.72;;;21.30;64.70;;;;;;5049254;28;20025;-67
2023/05/06 10:26:39;;;;;;;10.57;6.95;;;21.40;64.50;;;;;;5050448;28;20037;-68
2023/05/06 10:29:09;;;;;;;7.28;6.18;;;21.40;63.80;;;;;;5050224;28;20100;-67
2023/05/06 10:31:39;;;;;;;6.97;5.00;;;21.50;63.20;;;;;;5050551;28;20017;-67
2023/05/06 10:34:07;;;;;;;6.80;5.00;;;21.70;62.60;;;;;;5049389;28;20391;-66
2023/05/06 10:36:35;;;;;;;7.68;6.22;;;21.70;62.10;;;;;;5049605;28;20438;-66
2023/05/06 10:39:02;;;;;;;7.38;4.72;;;21.70;60.90;;;;;;5050822;28;20082;-67
2023/05/06 10:41:28;;;;;;;5.90;3.30;;;21.80;61.00;;;;;;5050925;28;20574;-67
2023/05/06 10:43:55;;;;;;;5.47;3.88;;;21.90;60.80;;;;;;5050421;28;20066;-68
2023/05/06 10:46:22;;;;;;;4.85;3.30;;;22.20;60.60;;;;;;5050157;28;20020;-67
2023/05/06 10:49:12;;;;;;;6.10;3.47;;;22.40;60.20;;;;;;5050208;28;20503;-68
2023/05/06 10:51:38;;;;;;;5.47;3.50;;;22.50;59.70;;;;;;5043958;28;20025;-68
2023/05/06 10:54:19;;;;;;;6.35;4.40;;;22.60;59.20;;;;;;5050326;28;20414;-67
2023/05/06 10:56:48;;;;;;;7.00;5.87;;;22.40;57.40;;;;;;5048819;28;20028;-67
2023/05/06 10:59:15;;;;;;;6.68;4.45;;;22.40;57.70;;;;;;5050177;28;20040;-66
2023/05/06 11:01:43;;;;;;;8.13;4.35;;;22.30;58.20;;;;;;5049949;28;20078;-68
2023/05/06 11:04:13;;;;;;;6.75;4.30;;;22.30;58.60;;;;;;5050098;28;20387;-67
2023/05/06 11:06:46;;;;;;;5.18;3.83;;;22.30;58.80;;;;;;5050347;28;20033;-67
2023/05/06 11:09:20;;;;;;;5.70;3.97;;;22.40;58.60;;;;;;5050045;28;20588;-66
2023/05/06 11:12:02;;;;;;;5.13;3.65;;;22.30;58.40;;;;;;5049915;28;20024;-67
2023/05/06 11:14:36;;;;;;;5.13;3.83;;;22.20;58.20;;;;;;5050344;28;20079;-66
2023/05/06 11:17:06;;;;;;;8.80;4.45;;;22.20;58.40;;;;;;5050066;28;20033;-67
2023/05/06 11:19:34;;;;;;;6.78;4.30;;;22.20;57.90;;;;;;5053903;28;20491;-66
2023/05/06 11:22:02;;;;;;;5.00;3.15;;;22.10;57.30;;;;;;5053820;28;20086;-68
2023/05/06 11:24:43;;;;;;;5.40;3.50;;;22.20;58.10;;;;;;5053955;28;20025;-67
2023/05/06 11:27:09;;;;;;;5.80;3.80;;;22.50;58.00;;;;;;5053868;28;20037;-67
2023/05/06 11:29:35;;;;;;;5.47;3.58;;;22.60;56.80;;;;;;5053953;28;20031;-68
2023/05/06 11:32:02;;;;;;;6.47;3.95;;;22.60;57.10;;;;;;5052403;28;20017;-67
2023/05/06 11:34:30;;;;;;;6.55;3.53;;;22.70;56.60;;;;;;5052499;28;20024;-67
2023/05/06 11:37:02;;;;;;;5.78;3.90;;;23.00;56.60;;;;;;5052616;28;20494;-68
2023/05/06 11:39:30;;;;;;;5.88;4.53;;;23.00;55.60;;;;;;5053509;28;20079;-67
2023/05/06 11:41:58;;;;;;;5.75;3.30;;;22.90;55.20;;;;;;5053523;28;20027;-67
2023/05/06 11:44:29;;;;;;;4.50;2.75;;;23.00;55.80;;;;;;5053475;28;20032;-68
2023/05/06 11:46:57;;;;;;;3.88;2.80;;;23.20;55.80;;;;;;5053173;28;20605;-67
2023/05/06 11:49:23;;;;;;;5.72;3.30;;;23.30;55.30;;;;;;5053201;28;20029;-67
2023/05/06 11:51:49;;;;;;;4.53;3.35;;;23.10;54.00;;;;;;5047555;28;20354;-67
2023/05/06 11:54:17;;;;;;;4.82;3.30;;;23.00;54.30;;;;;;5051376;28;20154;-67
2023/05/06 11:56:48;;;;;;;6.28;4.30;;;23.10;54.30;;;;;;5053038;28;20013;-69
2023/05/06 11:59:14;;;;;;;6.03;3.95;;;23.10;53.40;;;;;;5052799;28;20453;-67
2023/05/06 12:01:42;;;;;;;4.28;2.80;;;23.10;54.50;;;;;;5053194;28;20096;-68
2023/05/06 12:04:07;;;;;;;4.82;3.78;;;23.30;54.10;;;;;;5053084;28;20029;-68
2023/05/06 12:06:34;;;;;;;3.63;2.65;;;23.30;53.40;;;;;;5051746;28;20021;-68
2023/05/06 12:09:01;;;;;;;6.32;3.85;;;23.20;53.80;;;;;;5052959;28;20033;-68
2023/05/06 12:11:27;;;;;;;5.32;3.20;;;23.30;53.80;;;;;;5053098;28;20009;-68
2023/05/06 12:13:53;;;;;;;4.35;2.55;;;23.40;54.00;;;;;;5053224;28;20483;-68
2023/05/06 12:16:19;;;;;;;4.50;3.13;;;23.60;53.90;;;;;;5052818;28;20454;-68
2023/05/06 12:18:45;;;;;;;4.68;3.15;;;23.60;53.20;;;;;;5051408;28;20391;-67
2023/05/06 12:21:10;;;;;;;5.82;3.33;;;23.50;53.10;;;;;;5052684;28;20032;-68
2023/05/06 12:23:36;;;;;;;3.75;2.88;;;23.40;52.60;;;;;;5052738;28;20476;-68
2023/05/06 12:26:04;;;;;;;6.05;3.90;;;23.30;52.50;;;;;;5052504;28;20033;-68
2023/05/06 12:28:31;;;;;;;4.75;3.10;;;23.20;52.30;;;;;;5052249;28;20020;-70
2023/05/06 12:30:56;;;;;;;5.68;3.15;;;23.30;52.70;;;;;;5051334;28;20114;-69
2023/05/06 12:33:22;;;;;;;4.38;2.90;;;23.30;52.40;;;;;;5052992;28;20033;-68
2023/05/06 12:35:50;;;;;;;4.45;2.55;;;23.20;52.40;;;;;;5051488;28;20017;-68
2023/05/06 12:38:17;;;;;;;3.97;2.60;;;23.20;52.40;;;;;;5052344;28;20074;-68